sensor_id;sensor_type;location;lat;lon;timestamp;P1;durP1;ratioP1;P2;durP2;ratioP2
57341;SDS011;43175;51.002;18.316;2023-05-10T00:00:33;13.70;;;5.90;;
57341;SDS011;43175;51.002;18.316;2023-05-10T00:02:58;13.00;;;6.20;;
57341;SDS011;43175;51.002;18.316;2023-05-10T00:05:24;13.70;;;6.40;;
57341;SDS011;43175;51.002;18.316;2023-05-10T00:07:49;14.60;;;6.20;;
57341;SDS011;43175;51.002;18.316;2023-05-10T00:10:15;14.20;;;6.30;;
57341;SDS011;43175;51.002;18.316;2023-05-10T00:12:41;14.00;;;6.10;;
57341;SDS011;43175;51.002;18.316;2023-05-10T00:15:07;13.00;;;5.90;;
57341;SDS011;43175;51.002;18.316;2023-05-10T00:17:33;14.00;;;6.10;;
57341;SDS011;43175;51.002;18.316;2023-05-10T00:19:59;14.20;;;6.00;;
57341;SDS011;43175;51.002;18.316;2023-05-10T00:22:24;14.60;;;5.90;;
57341;SDS011;43175;51.002;18.316;2023-05-10T00:24:50;12.40;;;5.80;;
57341;SDS011;43175;51.002;18.316;2023-05-10T00:27:15;12.00;;;5.90;;
57341;SDS011;43175;51.002;18.316;2023-05-10T00:29:41;14.70;;;6.30;;
57341;SDS011;43175;51.002;18.316;2023-05-10T00:32:06;12.10;;;5.60;;
57341;SDS011;43175;51.002;18.316;2023-05-10T00:34:31;13.40;;;5.90;;
57341;SDS011;43175;51.002;18.316;2023-05-10T00:36:57;11.90;;;5.50;;
57341;SDS011;43175;51.002;18.316;2023-05-10T00:39:22;13.20;;;6.30;;
57341;SDS011;43175;51.002;18.316;2023-05-10T00:41:48;12.80;;;5.70;;
57341;SDS011;43175;51.002;18.316;2023-05-10T00:44:13;13.60;;;6.10;;
57341;SDS011;43175;51.002;18.316;2023-05-10T00:46:39;14.40;;;6.40;;
57341;SDS011;43175;51.002;18.316;2023-05-10T00:49:05;14.00;;;6.40;;
57341;SDS011;43175;51.002;18.316;2023-05-10T00:51:31;15.20;;;6.30;;
57341;SDS011;43175;51.002;18.316;2023-05-10T00:53:57;13.30;;;5.80;;
57341;SDS011;43175;51.002;18.316;2023-05-10T00:56:23;13.30;;;6.10;;
57341;SDS011;43175;51.002;18.316;2023-05-10T00:58:50;12.90;;;6.00;;
57341;SDS011;43175;51.002;18.316;2023-05-10T01:01:15;13.80;;;6.00;;
57341;SDS011;43175;51.002;18.316;2023-05-10T01:03:41;12.10;;;5.70;;
57341;SDS011;43175;51.002;18.316;2023-05-10T01:06:07;15.00;;;6.10;;
57341;SDS011;43175;51.002;18.316;2023-05-10T01:08:33;13.10;;;5.80;;
57341;SDS011;43175;51.002;18.316;2023-05-10T01:10:58;13.80;;;5.70;;
57341;SDS011;43175;51.002;18.316;2023-05-10T01:13:33;13.20;;;6.40;;
57341;SDS011;43175;51.002;18.316;2023-05-10T01:16:01;14.80;;;6.00;;
57341;SDS011;43175;51.002;18.316;2023-05-10T01:18:29;18.00;;;6.50;;
57341;SDS011;43175;51.002;18.316;2023-05-10T01:20:59;16.00;;;6.50;;
57341;SDS011;43175;51.002;18.316;2023-05-10T01:34:42;15.20;;;6.40;;
57341;SDS011;43175;51.002;18.316;2023-05-10T01:37:21;14.70;;;6.40;;
57341;SDS011;43175;51.002;18.316;2023-05-10T01:39:58;13.70;;;6.50;;
57341;SDS011;43175;51.002;18.316;2023-05-10T01:42:28;12.90;;;6.20;;
57341;SDS011;43175;51.002;18.316;2023-05-10T01:47:50;15.20;;;6.50;;
57341;SDS011;43175;51.002;18.316;2023-05-10T01:50:24;14.20;;;6.40;;
57341;SDS011;43175;51.002;18.316;2023-05-10T01:52:54;13.80;;;6.30;;
57341;SDS011;43175;51.002;18.316;2023-05-10T01:55:23;14.50;;;6.80;;
57341;SDS011;43175;51.002;18.316;2023-05-10T01:57:59;15.00;;;6.70;;
57341;SDS011;43175;51.002;18.316;2023-05-10T02:00:30;16.60;;;7.90;;
57341;SDS011;43175;51.002;18.316;2023-05-10T02:02:57;16.70;;;7.60;;
57341;SDS011;43175;51.002;18.316;2023-05-10T02:05:23;15.90;;;8.10;;
57341;SDS011;43175;51.002;18.316;2023-05-10T02:07:49;15.80;;;7.50;;
57341;SDS011;43175;51.002;18.316;2023-05-10T02:10:15;16.40;;;8.20;;
57341;SDS011;43175;51.002;18.316;2023-05-10T02:12:43;16.40;;;8.50;;
57341;SDS011;43175;51.002;18.316;2023-05-10T02:15:10;16.80;;;8.70;;
57341;SDS011;43175;51.002;18.316;2023-05-10T02:17:37;16.70;;;8.30;;
57341;SDS011;43175;51.002;18.316;2023-05-10T02:20:03;16.50;;;8.50;;
57341;SDS011;43175;51.002;18.316;2023-05-10T02:22:31;15.60;;;8.20;;
57341;SDS011;43175;51.002;18.316;2023-05-10T02:24:57;19.90;;;8.30;;
57341;SDS011;43175;51.002;18.316;2023-05-10T02:27:23;18.00;;;8.80;;
57341;SDS011;43175;51.002;18.316;2023-05-10T02:29:51;15.30;;;7.60;;
57341;SDS011;43175;51.002;18.316;2023-05-10T02:32:17;14.50;;;7.80;;
57341;SDS011;43175;51.002;18.316;2023-05-10T02:34:43;14.50;;;7.70;;
57341;SDS011;43175;51.002;18.316;2023-05-10T02:37:11;16.40;;;8.10;;
57341;SDS011;43175;51.002;18.316;2023-05-10T02:39:39;17.40;;;7.80;;
57341;SDS011;43175;51.002;18.316;2023-05-10T02:42:10;15.40;;;7.80;;
57341;SDS011;43175;51.002;18.316;2023-05-10T02:47:07;16.40;;;8.20;;
57341;SDS011;43175;51.002;18.316;2023-05-10T02:49:32;16.60;;;7.80;;
57341;SDS011;43175;51.002;18.316;2023-05-10T02:52:00;15.10;;;7.90;;
57341;SDS011;43175;51.002;18.316;2023-05-10T02:54:29;14.60;;;7.80;;
57341;SDS011;43175;51.002;18.316;2023-05-10T02:56:59;15.30;;;7.40;;
57341;SDS011;43175;51.002;18.316;2023-05-10T02:59:26;17.80;;;8.00;;
57341;SDS011;43175;51.002;18.316;2023-05-10T03:01:52;17.40;;;7.90;;
57341;SDS011;43175;51.002;18.316;2023-05-10T03:04:18;15.50;;;7.70;;
57341;SDS011;43175;51.002;18.316;2023-05-10T03:06:43;15.40;;;7.90;;
57341;SDS011;43175;51.002;18.316;2023-05-10T03:09:09;18.40;;;8.10;;
57341;SDS011;43175;51.002;18.316;2023-05-10T03:11:55;17.20;;;8.20;;
57341;SDS011;43175;51.002;18.316;2023-05-10T03:14:29;16.10;;;8.20;;
57341;SDS011;43175;51.002;18.316;2023-05-10T03:19:37;18.10;;;8.80;;
57341;SDS011;43175;51.002;18.316;2023-05-10T03:22:08;16.30;;;8.10;;
57341;SDS011;43175;51.002;18.316;2023-05-10T03:24:35;16.50;;;8.20;;
57341;SDS011;43175;51.002;18.316;2023-05-10T03:27:01;14.80;;;8.10;;
57341;SDS011;43175;51.002;18.316;2023-05-10T03:29:29;17.50;;;8.30;;
57341;SDS011;43175;51.002;18.316;2023-05-10T03:31:57;17.30;;;9.00;;
57341;SDS011;43175;51.002;18.316;2023-05-10T03:34:24;16.90;;;8.50;;
57341;SDS011;43175;51.002;18.316;2023-05-10T03:36:50;18.40;;;8.80;;
57341;SDS011;43175;51.002;18.316;2023-05-10T03:39:16;16.10;;;8.50;;
57341;SDS011;43175;51.002;18.316;2023-05-10T03:41:41;15.00;;;8.10;;
57341;SDS011;43175;51.002;18.316;2023-05-10T03:44:07;17.00;;;8.10;;
57341;SDS011;43175;51.002;18.316;2023-05-10T03:46:32;16.30;;;8.40;;
57341;SDS011;43175;51.002;18.316;2023-05-10T03:48:58;16.80;;;8.40;;
57341;SDS011;43175;51.002;18.316;2023-05-10T03:51:24;16.60;;;8.50;;
57341;SDS011;43175;51.002;18.316;2023-05-10T03:53:53;17.20;;;8.50;;
57341;SDS011;43175;51.002;18.316;2023-05-10T03:56:20;15.90;;;8.40;;
57341;SDS011;43175;51.002;18.316;2023-05-10T03:58:46;16.00;;;8.40;;
57341;SDS011;43175;51.002;18.316;2023-05-10T04:01:12;16.90;;;8.00;;
57341;SDS011;43175;51.002;18.316;2023-05-10T04:03:37;17.40;;;8.80;;
57341;SDS011;43175;51.002;18.316;2023-05-10T04:06:03;18.90;;;8.90;;
57341;SDS011;43175;51.002;18.316;2023-05-10T04:08:30;15.80;;;8.80;;
57341;SDS011;43175;51.002;18.316;2023-05-10T04:11:06;18.30;;;8.90;;
57341;SDS011;43175;51.002;18.316;2023-05-10T04:13:32;17.10;;;8.90;;
57341;SDS011;43175;51.002;18.316;2023-05-10T04:15:58;16.90;;;9.00;;
57341;SDS011;43175;51.002;18.316;2023-05-10T04:18:23;16.80;;;8.40;;
57341;SDS011;43175;51.002;18.316;2023-05-10T04:20:49;18.70;;;9.00;;
57341;SDS011;43175;51.002;18.316;2023-05-10T04:23:14;18.70;;;9.00;;
57341;SDS011;43175;51.002;18.316;2023-05-10T04:25:41;17.00;;;9.00;;
57341;SDS011;43175;51.002;18.316;2023-05-10T04:28:07;20.60;;;9.80;;
57341;SDS011;43175;51.002;18.316;2023-05-10T04:30:34;20.30;;;10.40;;
57341;SDS011;43175;51.002;18.316;2023-05-10T04:33:00;19.70;;;9.00;;
57341;SDS011;43175;51.002;18.316;2023-05-10T04:35:27;16.90;;;8.70;;
57341;SDS011;43175;51.002;18.316;2023-05-10T04:37:53;15.40;;;7.90;;
57341;SDS011;43175;51.002;18.316;2023-05-10T04:40:19;17.30;;;8.50;;
57341;SDS011;43175;51.002;18.316;2023-05-10T04:42:45;17.60;;;8.00;;
57341;SDS011;43175;51.002;18.316;2023-05-10T04:45:11;16.20;;;8.10;;
57341;SDS011;43175;51.002;18.316;2023-05-10T04:47:36;17.60;;;7.80;;
57341;SDS011;43175;51.002;18.316;2023-05-10T04:50:03;16.30;;;7.80;;
57341;SDS011;43175;51.002;18.316;2023-05-10T04:52:29;15.90;;;7.60;;
57341;SDS011;43175;51.002;18.316;2023-05-10T04:54:54;17.20;;;8.20;;
57341;SDS011;43175;51.002;18.316;2023-05-10T04:57:20;15.40;;;8.10;;
57341;SDS011;43175;51.002;18.316;2023-05-10T04:59:45;17.10;;;7.90;;
57341;SDS011;43175;51.002;18.316;2023-05-10T05:02:11;17.50;;;8.10;;
57341;SDS011;43175;51.002;18.316;2023-05-10T05:04:37;15.70;;;7.30;;
57341;SDS011;43175;51.002;18.316;2023-05-10T05:07:02;14.00;;;7.00;;
57341;SDS011;43175;51.002;18.316;2023-05-10T05:09:27;17.40;;;6.40;;
57341;SDS011;43175;51.002;18.316;2023-05-10T05:11:53;13.00;;;6.10;;
57341;SDS011;43175;51.002;18.316;2023-05-10T05:14:19;12.50;;;6.10;;
57341;SDS011;43175;51.002;18.316;2023-05-10T05:16:46;14.40;;;5.90;;
57341;SDS011;43175;51.002;18.316;2023-05-10T05:19:11;15.60;;;5.90;;
57341;SDS011;43175;51.002;18.316;2023-05-10T05:21:37;13.80;;;6.20;;
57341;SDS011;43175;51.002;18.316;2023-05-10T05:24:03;15.50;;;6.10;;
57341;SDS011;43175;51.002;18.316;2023-05-10T05:26:29;14.10;;;5.80;;
57341;SDS011;43175;51.002;18.316;2023-05-10T05:28:54;13.40;;;5.50;;
57341;SDS011;43175;51.002;18.316;2023-05-10T05:31:20;11.80;;;5.50;;
57341;SDS011;43175;51.002;18.316;2023-05-10T05:33:46;12.70;;;5.70;;
57341;SDS011;43175;51.002;18.316;2023-05-10T05:36:11;11.60;;;5.50;;
57341;SDS011;43175;51.002;18.316;2023-05-10T05:38:37;12.00;;;5.50;;
57341;SDS011;43175;51.002;18.316;2023-05-10T05:41:02;12.40;;;5.30;;
57341;SDS011;43175;51.002;18.316;2023-05-10T05:43:28;12.60;;;5.90;;
57341;SDS011;43175;51.002;18.316;2023-05-10T05:45:53;12.80;;;5.30;;
57341;SDS011;43175;51.002;18.316;2023-05-10T05:48:20;11.60;;;5.40;;
57341;SDS011;43175;51.002;18.316;2023-05-10T05:50:45;11.90;;;5.00;;
57341;SDS011;43175;51.002;18.316;2023-05-10T05:53:11;12.30;;;5.30;;
57341;SDS011;43175;51.002;18.316;2023-05-10T05:55:37;11.20;;;4.80;;
57341;SDS011;43175;51.002;18.316;2023-05-10T05:58:03;13.20;;;5.60;;
57341;SDS011;43175;51.002;18.316;2023-05-10T06:00:28;12.50;;;5.20;;
57341;SDS011;43175;51.002;18.316;2023-05-10T06:02:54;12.00;;;5.30;;
57341;SDS011;43175;51.002;18.316;2023-05-10T06:05:20;10.90;;;4.80;;
57341;SDS011;43175;51.002;18.316;2023-05-10T06:07:46;11.70;;;5.10;;
57341;SDS011;43175;51.002;18.316;2023-05-10T06:10:11;14.80;;;5.30;;
57341;SDS011;43175;51.002;18.316;2023-05-10T06:12:37;13.60;;;5.40;;
57341;SDS011;43175;51.002;18.316;2023-05-10T06:15:03;14.30;;;5.20;;
57341;SDS011;43175;51.002;18.316;2023-05-10T06:17:30;12.00;;;5.10;;
57341;SDS011;43175;51.002;18.316;2023-05-10T06:19:55;12.10;;;5.40;;
57341;SDS011;43175;51.002;18.316;2023-05-10T06:22:21;12.10;;;5.10;;
57341;SDS011;43175;51.002;18.316;2023-05-10T06:24:50;16.50;;;7.10;;
57341;SDS011;43175;51.002;18.316;2023-05-10T06:27:15;13.10;;;6.00;;
57341;SDS011;43175;51.002;18.316;2023-05-10T06:29:41;10.80;;;4.80;;
57341;SDS011;43175;51.002;18.316;2023-05-10T06:32:06;10.60;;;4.50;;
57341;SDS011;43175;51.002;18.316;2023-05-10T06:34:32;10.70;;;4.50;;
57341;SDS011;43175;51.002;18.316;2023-05-10T06:36:57;11.50;;;4.50;;
57341;SDS011;43175;51.002;18.316;2023-05-10T06:39:23;11.90;;;4.30;;
57341;SDS011;43175;51.002;18.316;2023-05-10T06:41:48;12.20;;;4.40;;
57341;SDS011;43175;51.002;18.316;2023-05-10T06:44:14;10.80;;;4.20;;
57341;SDS011;43175;51.002;18.316;2023-05-10T06:46:40;11.00;;;4.60;;
57341;SDS011;43175;51.002;18.316;2023-05-10T06:49:06;12.90;;;4.30;;
57341;SDS011;43175;51.002;18.316;2023-05-10T06:51:31;12.10;;;4.40;;
57341;SDS011;43175;51.002;18.316;2023-05-10T06:53:58;11.60;;;4.40;;
57341;SDS011;43175;51.002;18.316;2023-05-10T06:56:23;11.50;;;4.20;;
57341;SDS011;43175;51.002;18.316;2023-05-10T06:58:49;11.10;;;4.50;;
57341;SDS011;43175;51.002;18.316;2023-05-10T07:01:14;15.10;;;4.80;;
57341;SDS011;43175;51.002;18.316;2023-05-10T07:03:40;11.40;;;4.40;;
57341;SDS011;43175;51.002;18.316;2023-05-10T07:06:05;9.60;;;3.70;;
57341;SDS011;43175;51.002;18.316;2023-05-10T07:08:35;18.90;;;4.60;;
57341;SDS011;43175;51.002;18.316;2023-05-10T07:13:28;10.40;;;3.80;;
57341;SDS011;43175;51.002;18.316;2023-05-10T07:15:57;10.60;;;3.90;;
57341;SDS011;43175;51.002;18.316;2023-05-10T07:18:24;9.70;;;4.00;;
57341;SDS011;43175;51.002;18.316;2023-05-10T07:20:49;11.10;;;3.80;;
57341;SDS011;43175;51.002;18.316;2023-05-10T07:23:15;11.20;;;4.40;;
57341;SDS011;43175;51.002;18.316;2023-05-10T07:25:46;10.20;;;4.40;;
57341;SDS011;43175;51.002;18.316;2023-05-10T07:28:13;10.00;;;3.80;;
57341;SDS011;43175;51.002;18.316;2023-05-10T07:30:39;15.40;;;4.20;;
57341;SDS011;43175;51.002;18.316;2023-05-10T07:33:05;21.60;;;5.70;;
57341;SDS011;43175;51.002;18.316;2023-05-10T07:35:31;25.10;;;5.50;;
57341;SDS011;43175;51.002;18.316;2023-05-10T07:37:57;19.60;;;4.90;;
57341;SDS011;43175;51.002;18.316;2023-05-10T07:40:22;12.50;;;4.60;;
57341;SDS011;43175;51.002;18.316;2023-05-10T07:42:48;11.40;;;3.80;;
57341;SDS011;43175;51.002;18.316;2023-05-10T07:45:13;11.60;;;4.10;;
57341;SDS011;43175;51.002;18.316;2023-05-10T07:47:38;10.70;;;4.00;;
57341;SDS011;43175;51.002;18.316;2023-05-10T07:50:04;9.50;;;3.70;;
57341;SDS011;43175;51.002;18.316;2023-05-10T07:52:30;10.00;;;3.70;;
57341;SDS011;43175;51.002;18.316;2023-05-10T07:54:56;11.00;;;4.00;;
57341;SDS011;43175;51.002;18.316;2023-05-10T07:57:22;11.00;;;4.20;;
57341;SDS011;43175;51.002;18.316;2023-05-10T07:59:47;11.50;;;4.30;;
57341;SDS011;43175;51.002;18.316;2023-05-10T08:02:12;10.30;;;4.20;;
57341;SDS011;43175;51.002;18.316;2023-05-10T08:04:38;10.30;;;4.10;;
57341;SDS011;43175;51.002;18.316;2023-05-10T08:07:04;13.20;;;4.40;;
57341;SDS011;43175;51.002;18.316;2023-05-10T08:09:30;10.90;;;4.10;;
57341;SDS011;43175;51.002;18.316;2023-05-10T08:11:55;13.30;;;4.20;;
57341;SDS011;43175;51.002;18.316;2023-05-10T08:14:21;8.90;;;3.40;;
57341;SDS011;43175;51.002;18.316;2023-05-10T08:16:47;11.70;;;3.70;;
57341;SDS011;43175;51.002;18.316;2023-05-10T08:19:12;10.90;;;3.90;;
57341;SDS011;43175;51.002;18.316;2023-05-10T08:21:38;12.50;;;3.90;;
57341;SDS011;43175;51.002;18.316;2023-05-10T08:24:05;12.00;;;3.80;;
57341;SDS011;43175;51.002;18.316;2023-05-10T08:26:32;9.70;;;3.80;;
57341;SDS011;43175;51.002;18.316;2023-05-10T08:28:57;9.50;;;3.90;;
57341;SDS011;43175;51.002;18.316;2023-05-10T08:31:23;9.20;;;3.60;;
57341;SDS011;43175;51.002;18.316;2023-05-10T08:33:49;10.80;;;3.40;;
57341;SDS011;43175;51.002;18.316;2023-05-10T08:36:16;9.60;;;3.60;;
57341;SDS011;43175;51.002;18.316;2023-05-10T08:38:46;11.80;;;3.80;;
57341;SDS011;43175;51.002;18.316;2023-05-10T08:41:15;11.10;;;3.70;;
57341;SDS011;43175;51.002;18.316;2023-05-10T08:43:40;9.90;;;3.50;;
57341;SDS011;43175;51.002;18.316;2023-05-10T08:46:11;9.50;;;3.60;;
57341;SDS011;43175;51.002;18.316;2023-05-10T08:48:41;9.40;;;3.90;;
57341;SDS011;43175;51.002;18.316;2023-05-10T08:51:08;10.40;;;3.60;;
57341;SDS011;43175;51.002;18.316;2023-05-10T08:53:35;12.30;;;3.80;;
57341;SDS011;43175;51.002;18.316;2023-05-10T08:56:02;10.80;;;3.80;;
57341;SDS011;43175;51.002;18.316;2023-05-10T08:58:27;10.40;;;3.70;;
57341;SDS011;43175;51.002;18.316;2023-05-10T09:00:53;10.90;;;3.40;;
57341;SDS011;43175;51.002;18.316;2023-05-10T09:03:18;11.30;;;3.60;;
57341;SDS011;43175;51.002;18.316;2023-05-10T09:05:44;11.90;;;3.60;;
57341;SDS011;43175;51.002;18.316;2023-05-10T09:08:11;10.30;;;3.20;;
57341;SDS011;43175;51.002;18.316;2023-05-10T09:10:38;10.60;;;3.40;;
57341;SDS011;43175;51.002;18.316;2023-05-10T09:13:05;11.00;;;3.30;;
57341;SDS011;43175;51.002;18.316;2023-05-10T09:15:31;10.80;;;3.60;;
57341;SDS011;43175;51.002;18.316;2023-05-10T09:17:56;18.60;;;4.50;;
57341;SDS011;43175;51.002;18.316;2023-05-10T09:20:24;11.60;;;4.00;;
57341;SDS011;43175;51.002;18.316;2023-05-10T09:22:50;9.30;;;3.70;;
57341;SDS011;43175;51.002;18.316;2023-05-10T09:25:16;8.90;;;3.20;;
57341;SDS011;43175;51.002;18.316;2023-05-10T09:27:45;9.50;;;3.40;;
57341;SDS011;43175;51.002;18.316;2023-05-10T09:30:15;10.50;;;3.60;;
57341;SDS011;43175;51.002;18.316;2023-05-10T09:32:42;15.00;;;4.40;;
57341;SDS011;43175;51.002;18.316;2023-05-10T09:35:09;10.70;;;3.50;;
57341;SDS011;43175;51.002;18.316;2023-05-10T09:37:36;10.00;;;3.30;;
57341;SDS011;43175;51.002;18.316;2023-05-10T09:40:07;11.00;;;3.40;;
57341;SDS011;43175;51.002;18.316;2023-05-10T09:42:34;10.20;;;3.70;;
57341;SDS011;43175;51.002;18.316;2023-05-10T09:45:03;10.50;;;3.80;;
57341;SDS011;43175;51.002;18.316;2023-05-10T09:47:31;11.00;;;3.40;;
57341;SDS011;43175;51.002;18.316;2023-05-10T09:49:57;9.00;;;3.20;;
57341;SDS011;43175;51.002;18.316;2023-05-10T09:52:30;9.30;;;3.30;;
57341;SDS011;43175;51.002;18.316;2023-05-10T09:54:57;9.30;;;3.40;;
57341;SDS011;43175;51.002;18.316;2023-05-10T09:57:23;9.20;;;3.20;;
57341;SDS011;43175;51.002;18.316;2023-05-10T09:59:49;8.70;;;3.20;;
57341;SDS011;43175;51.002;18.316;2023-05-10T10:02:16;10.10;;;3.30;;
57341;SDS011;43175;51.002;18.316;2023-05-10T10:04:41;9.00;;;3.40;;
57341;SDS011;43175;51.002;18.316;2023-05-10T10:07:08;9.40;;;3.10;;
57341;SDS011;43175;51.002;18.316;2023-05-10T10:09:34;10.30;;;3.60;;
57341;SDS011;43175;51.002;18.316;2023-05-10T10:12:00;11.30;;;3.60;;
57341;SDS011;43175;51.002;18.316;2023-05-10T10:14:29;10.00;;;3.50;;
57341;SDS011;43175;51.002;18.316;2023-05-10T10:16:55;10.40;;;3.50;;
57341;SDS011;43175;51.002;18.316;2023-05-10T10:19:21;8.70;;;3.30;;
57341;SDS011;43175;51.002;18.316;2023-05-10T10:21:48;9.50;;;3.50;;
57341;SDS011;43175;51.002;18.316;2023-05-10T10:24:14;8.80;;;3.40;;
57341;SDS011;43175;51.002;18.316;2023-05-10T10:26:40;9.90;;;3.40;;
57341;SDS011;43175;51.002;18.316;2023-05-10T10:29:24;10.10;;;3.20;;
57341;SDS011;43175;51.002;18.316;2023-05-10T10:34:38;10.80;;;3.00;;
57341;SDS011;43175;51.002;18.316;2023-05-10T10:37:04;12.20;;;3.30;;
57341;SDS011;43175;51.002;18.316;2023-05-10T10:39:30;9.60;;;3.40;;
57341;SDS011;43175;51.002;18.316;2023-05-10T10:41:57;9.40;;;3.30;;
57341;SDS011;43175;51.002;18.316;2023-05-10T10:47:05;9.80;;;3.00;;
57341;SDS011;43175;51.002;18.316;2023-05-10T10:54:58;8.70;;;3.40;;
57341;SDS011;43175;51.002;18.316;2023-05-10T10:57:25;8.20;;;3.10;;
57341;SDS011;43175;51.002;18.316;2023-05-10T10:59:53;9.00;;;3.30;;
57341;SDS011;43175;51.002;18.316;2023-05-10T11:10:52;11.20;;;3.20;;
57341;SDS011;43175;51.002;18.316;2023-05-10T11:13:31;12.80;;;3.30;;
57341;SDS011;43175;51.002;18.316;2023-05-10T11:21:17;9.00;;;3.50;;
57341;SDS011;43175;51.002;18.316;2023-05-10T11:23:49;11.70;;;3.30;;
57341;SDS011;43175;51.002;18.316;2023-05-10T11:26:17;8.90;;;3.30;;
57341;SDS011;43175;51.002;18.316;2023-05-10T11:28:43;9.70;;;3.10;;
57341;SDS011;43175;51.002;18.316;2023-05-10T11:31:18;9.10;;;3.30;;
57341;SDS011;43175;51.002;18.316;2023-05-10T11:33:45;10.60;;;3.30;;
57341;SDS011;43175;51.002;18.316;2023-05-10T11:36:15;11.40;;;3.50;;
57341;SDS011;43175;51.002;18.316;2023-05-10T11:39:01;10.00;;;3.50;;
57341;SDS011;43175;51.002;18.316;2023-05-10T11:41:28;8.80;;;3.40;;
57341;SDS011;43175;51.002;18.316;2023-05-10T11:43:55;9.80;;;3.40;;
57341;SDS011;43175;51.002;18.316;2023-05-10T11:46:22;9.40;;;3.20;;
57341;SDS011;43175;51.002;18.316;2023-05-10T11:48:50;11.90;;;3.40;;
57341;SDS011;43175;51.002;18.316;2023-05-10T11:51:21;10.60;;;3.40;;
57341;SDS011;43175;51.002;18.316;2023-05-10T11:53:47;10.00;;;3.40;;
57341;SDS011;43175;51.002;18.316;2023-05-10T11:56:13;10.80;;;3.50;;
57341;SDS011;43175;51.002;18.316;2023-05-10T11:58:38;8.00;;;3.00;;
57341;SDS011;43175;51.002;18.316;2023-05-10T12:01:05;11.40;;;3.70;;
57341;SDS011;43175;51.002;18.316;2023-05-10T12:03:31;8.80;;;3.40;;
57341;SDS011;43175;51.002;18.316;2023-05-10T12:05:57;9.30;;;3.40;;
57341;SDS011;43175;51.002;18.316;2023-05-10T12:08:27;9.50;;;3.40;;
57341;SDS011;43175;51.002;18.316;2023-05-10T12:11:03;11.40;;;3.40;;
57341;SDS011;43175;51.002;18.316;2023-05-10T12:13:30;8.40;;;3.20;;
57341;SDS011;43175;51.002;18.316;2023-05-10T12:15:58;9.90;;;3.50;;
57341;SDS011;43175;51.002;18.316;2023-05-10T12:18:24;10.90;;;3.80;;
57341;SDS011;43175;51.002;18.316;2023-05-10T12:20:53;9.60;;;3.50;;
57341;SDS011;43175;51.002;18.316;2023-05-10T12:23:19;8.90;;;3.10;;
57341;SDS011;43175;51.002;18.316;2023-05-10T12:25:45;9.60;;;3.30;;
57341;SDS011;43175;51.002;18.316;2023-05-10T12:28:11;8.40;;;3.10;;
57341;SDS011;43175;51.002;18.316;2023-05-10T12:30:37;10.80;;;3.90;;
57341;SDS011;43175;51.002;18.316;2023-05-10T12:33:07;11.30;;;3.70;;
57341;SDS011;43175;51.002;18.316;2023-05-10T12:35:43;9.10;;;3.20;;
57341;SDS011;43175;51.002;18.316;2023-05-10T12:40:51;11.50;;;3.30;;
57341;SDS011;43175;51.002;18.316;2023-05-10T12:43:16;10.20;;;3.40;;
57341;SDS011;43175;51.002;18.316;2023-05-10T12:45:42;11.30;;;3.50;;
57341;SDS011;43175;51.002;18.316;2023-05-10T12:48:08;9.60;;;3.30;;
57341;SDS011;43175;51.002;18.316;2023-05-10T12:50:33;10.60;;;3.80;;
57341;SDS011;43175;51.002;18.316;2023-05-10T12:52:59;10.40;;;3.30;;
57341;SDS011;43175;51.002;18.316;2023-05-10T12:55:24;9.20;;;3.10;;
57341;SDS011;43175;51.002;18.316;2023-05-10T12:57:50;9.20;;;3.20;;
57341;SDS011;43175;51.002;18.316;2023-05-10T13:03:37;9.50;;;3.40;;
57341;SDS011;43175;51.002;18.316;2023-05-10T13:06:03;10.20;;;3.20;;
57341;SDS011;43175;51.002;18.316;2023-05-10T13:08:28;9.20;;;3.60;;
57341;SDS011;43175;51.002;18.316;2023-05-10T13:10:58;12.70;;;3.60;;
57341;SDS011;43175;51.002;18.316;2023-05-10T13:13:25;9.20;;;3.50;;
57341;SDS011;43175;51.002;18.316;2023-05-10T13:15:51;10.60;;;3.50;;
57341;SDS011;43175;51.002;18.316;2023-05-10T13:18:17;10.10;;;3.40;;
57341;SDS011;43175;51.002;18.316;2023-05-10T13:20:42;12.00;;;3.40;;
57341;SDS011;43175;51.002;18.316;2023-05-10T13:23:10;8.70;;;3.40;;
57341;SDS011;43175;51.002;18.316;2023-05-10T13:25:35;9.70;;;3.50;;
57341;SDS011;43175;51.002;18.316;2023-05-10T13:28:01;11.10;;;3.70;;
57341;SDS011;43175;51.002;18.316;2023-05-10T13:30:27;10.30;;;3.40;;
57341;SDS011;43175;51.002;18.316;2023-05-10T13:32:54;9.00;;;3.30;;
57341;SDS011;43175;51.002;18.316;2023-05-10T13:35:20;8.90;;;3.20;;
57341;SDS011;43175;51.002;18.316;2023-05-10T13:37:46;9.10;;;3.40;;
57341;SDS011;43175;51.002;18.316;2023-05-10T13:40:11;11.80;;;3.30;;
57341;SDS011;43175;51.002;18.316;2023-05-10T13:42:37;9.10;;;3.30;;
57341;SDS011;43175;51.002;18.316;2023-05-10T13:45:03;9.10;;;3.40;;
57341;SDS011;43175;51.002;18.316;2023-05-10T13:47:30;10.60;;;3.50;;
57341;SDS011;43175;51.002;18.316;2023-05-10T13:49:56;9.30;;;3.40;;
57341;SDS011;43175;51.002;18.316;2023-05-10T13:52:22;8.60;;;3.30;;
57341;SDS011;43175;51.002;18.316;2023-05-10T13:54:48;9.50;;;3.20;;
57341;SDS011;43175;51.002;18.316;2023-05-10T13:57:13;10.10;;;3.20;;
57341;SDS011;43175;51.002;18.316;2023-05-10T13:59:41;9.30;;;3.20;;
57341;SDS011;43175;51.002;18.316;2023-05-10T14:02:07;8.80;;;3.30;;
57341;SDS011;43175;51.002;18.316;2023-05-10T14:04:33;11.20;;;3.80;;
57341;SDS011;43175;51.002;18.316;2023-05-10T14:07:00;8.60;;;3.40;;
57341;SDS011;43175;51.002;18.316;2023-05-10T14:09:26;14.00;;;5.70;;
57341;SDS011;43175;51.002;18.316;2023-05-10T14:11:51;14.40;;;5.50;;
57341;SDS011;43175;51.002;18.316;2023-05-10T14:14:17;11.50;;;4.70;;
57341;SDS011;43175;51.002;18.316;2023-05-10T14:16:43;10.70;;;3.50;;
57341;SDS011;43175;51.002;18.316;2023-05-10T14:19:09;8.80;;;3.30;;
57341;SDS011;43175;51.002;18.316;2023-05-10T14:21:35;9.50;;;3.10;;
57341;SDS011;43175;51.002;18.316;2023-05-10T14:24:01;9.10;;;3.30;;
57341;SDS011;43175;51.002;18.316;2023-05-10T14:26:27;9.40;;;3.10;;
57341;SDS011;43175;51.002;18.316;2023-05-10T14:28:53;9.40;;;3.30;;
57341;SDS011;43175;51.002;18.316;2023-05-10T14:31:18;9.80;;;3.30;;
57341;SDS011;43175;51.002;18.316;2023-05-10T14:33:48;9.70;;;3.30;;
57341;SDS011;43175;51.002;18.316;2023-05-10T14:36:14;9.10;;;3.10;;
57341;SDS011;43175;51.002;18.316;2023-05-10T14:38:40;9.30;;;3.60;;
57341;SDS011;43175;51.002;18.316;2023-05-10T14:41:06;9.30;;;3.60;;
57341;SDS011;43175;51.002;18.316;2023-05-10T14:43:31;9.80;;;3.50;;
57341;SDS011;43175;51.002;18.316;2023-05-10T14:45:57;9.00;;;3.50;;
57341;SDS011;43175;51.002;18.316;2023-05-10T14:48:23;8.40;;;3.20;;
57341;SDS011;43175;51.002;18.316;2023-05-10T14:50:49;9.40;;;3.50;;
57341;SDS011;43175;51.002;18.316;2023-05-10T14:53:15;8.30;;;3.20;;
57341;SDS011;43175;51.002;18.316;2023-05-10T14:55:44;9.90;;;3.60;;
57341;SDS011;43175;51.002;18.316;2023-05-10T14:58:10;10.70;;;3.30;;
57341;SDS011;43175;51.002;18.316;2023-05-10T15:00:36;11.00;;;3.50;;
57341;SDS011;43175;51.002;18.316;2023-05-10T15:03:02;11.70;;;3.60;;
57341;SDS011;43175;51.002;18.316;2023-05-10T15:05:28;12.60;;;4.00;;
57341;SDS011;43175;51.002;18.316;2023-05-10T15:07:54;9.40;;;3.40;;
57341;SDS011;43175;51.002;18.316;2023-05-10T15:10:19;8.50;;;3.20;;
57341;SDS011;43175;51.002;18.316;2023-05-10T15:12:45;9.20;;;3.40;;
57341;SDS011;43175;51.002;18.316;2023-05-10T15:15:10;9.60;;;3.40;;